Terminal Aerodrome Forecast
Issued by NWS Twin Cities, MN

Home | Current Version | Previous Version | Text Only | Print | Product List | Glossary On
Versions: 1 2 3 4 5 6 7 8 9 10 11 12 13 14
227
FTUS43 KMPX 212322
TAFEAU
TAF
KEAU 212322Z 2200/2224 31009KT P6SM SKC
     FM220700 29004KT P6SM FEW250
     FM221400 24004KT P6SM SKC
     FM221900 20009G14KT P6SM BKN050 OVC150=

USA.gov is the U.S. government's official web portal to all federal, state and local government web resources and services.